sensor_id;sensor_type;location;lat;lon;timestamp;pressure;altitude;pressure_sealevel;temperature;humidity
10464;BME280;5279;42.048;24.638;2023-05-08T00:01:25;97708.66;;;12.35;100.00
10464;BME280;5279;42.048;24.638;2023-05-08T00:03:53;97702.91;;;12.39;100.00
10464;BME280;5279;42.048;24.638;2023-05-08T00:06:20;97692.88;;;12.51;100.00
10464;BME280;5279;42.048;24.638;2023-05-08T00:08:47;97697.50;;;12.49;100.00
10464;BME280;5279;42.048;24.638;2023-05-08T00:11:14;97688.91;;;12.55;100.00
10464;BME280;5279;42.048;24.638;2023-05-08T00:13:41;97694.44;;;12.61;100.00
10464;BME280;5279;42.048;24.638;2023-05-08T00:16:08;97699.63;;;12.45;100.00
10464;BME280;5279;42.048;24.638;2023-05-08T00:18:36;97689.63;;;12.39;100.00
10464;BME280;5279;42.048;24.638;2023-05-08T00:21:04;97700.63;;;12.27;100.00
10464;BME280;5279;42.048;24.638;2023-05-08T00:23:31;97689.16;;;12.26;100.00
10464;BME280;5279;42.048;24.638;2023-05-08T00:25:58;97695.94;;;12.21;100.00
10464;BME280;5279;42.048;24.638;2023-05-08T00:28:25;97691.22;;;12.15;100.00
10464;BME280;5279;42.048;24.638;2023-05-08T00:30:52;97692.91;;;12.16;100.00
10464;BME280;5279;42.048;24.638;2023-05-08T00:33:19;97704.03;;;12.19;100.00
10464;BME280;5279;42.048;24.638;2023-05-08T00:35:46;97701.78;;;12.24;100.00
10464;BME280;5279;42.048;24.638;2023-05-08T00:38:15;97694.41;;;12.18;100.00
10464;BME280;5279;42.048;24.638;2023-05-08T00:40:41;97706.09;;;12.25;100.00
10464;BME280;5279;42.048;24.638;2023-05-08T00:43:08;97696.84;;;12.29;100.00
10464;BME280;5279;42.048;24.638;2023-05-08T00:45:36;97696.25;;;12.18;100.00
10464;BME280;5279;42.048;24.638;2023-05-08T00:48:05;97696.59;;;12.05;100.00
10464;BME280;5279;42.048;24.638;2023-05-08T00:50:32;97706.41;;;12.04;100.00
10464;BME280;5279;42.048;24.638;2023-05-08T00:52:59;97703.38;;;11.99;100.00
10464;BME280;5279;42.048;24.638;2023-05-08T00:55:30;97713.81;;;12.01;100.00
10464;BME280;5279;42.048;24.638;2023-05-08T00:57:58;97705.06;;;12.00;100.00
10464;BME280;5279;42.048;24.638;2023-05-08T01:00:25;97706.09;;;12.07;100.00
10464;BME280;5279;42.048;24.638;2023-05-08T01:02:52;97710.72;;;12.05;100.00
10464;BME280;5279;42.048;24.638;2023-05-08T01:05:19;97717.78;;;11.97;100.00
10464;BME280;5279;42.048;24.638;2023-05-08T01:07:46;97715.56;;;11.92;100.00
10464;BME280;5279;42.048;24.638;2023-05-08T01:10:13;97714.91;;;11.90;100.00
10464;BME280;5279;42.048;24.638;2023-05-08T01:12:51;97731.47;;;11.75;100.00
10464;BME280;5279;42.048;24.638;2023-05-08T01:15:31;97726.53;;;11.80;100.00
10464;BME280;5279;42.048;24.638;2023-05-08T01:18:05;97732.94;;;11.87;100.00
10464;BME280;5279;42.048;24.638;2023-05-08T01:20:41;97731.56;;;11.83;100.00
10464;BME280;5279;42.048;24.638;2023-05-08T01:23:37;97726.72;;;11.78;100.00
10464;BME280;5279;42.048;24.638;2023-05-08T01:26:49;97735.28;;;11.72;100.00
10464;BME280;5279;42.048;24.638;2023-05-08T01:29:42;97735.88;;;11.84;100.00
10464;BME280;5279;42.048;24.638;2023-05-08T01:32:18;97730.22;;;11.79;100.00
10464;BME280;5279;42.048;24.638;2023-05-08T01:34:54;97727.44;;;11.61;100.00
10464;BME280;5279;42.048;24.638;2023-05-08T01:37:29;97721.25;;;11.43;100.00
10464;BME280;5279;42.048;24.638;2023-05-08T01:40:07;97725.59;;;11.44;100.00
10464;BME280;5279;42.048;24.638;2023-05-08T01:42:43;97732.59;;;11.45;100.00
10464;BME280;5279;42.048;24.638;2023-05-08T01:45:22;97720.50;;;11.33;100.00
10464;BME280;5279;42.048;24.638;2023-05-08T01:48:01;97736.78;;;11.38;100.00
10464;BME280;5279;42.048;24.638;2023-05-08T01:50:34;97731.97;;;11.24;100.00
10464;BME280;5279;42.048;24.638;2023-05-08T01:53:08;97727.06;;;11.29;100.00
10464;BME280;5279;42.048;24.638;2023-05-08T01:55:39;97725.84;;;11.23;100.00
10464;BME280;5279;42.048;24.638;2023-05-08T01:58:10;97730.91;;;11.44;100.00
10464;BME280;5279;42.048;24.638;2023-05-08T02:00:39;97723.22;;;11.41;100.00
10464;BME280;5279;42.048;24.638;2023-05-08T02:03:11;97725.50;;;11.36;100.00
10464;BME280;5279;42.048;24.638;2023-05-08T02:05:41;97726.63;;;11.33;100.00
10464;BME280;5279;42.048;24.638;2023-05-08T02:08:11;97721.94;;;11.18;100.00
10464;BME280;5279;42.048;24.638;2023-05-08T02:10:39;97724.31;;;11.21;100.00
10464;BME280;5279;42.048;24.638;2023-05-08T02:13:09;97724.13;;;11.32;100.00
10464;BME280;5279;42.048;24.638;2023-05-08T02:15:38;97719.69;;;11.23;100.00
10464;BME280;5279;42.048;24.638;2023-05-08T02:18:10;97727.75;;;11.31;100.00
10464;BME280;5279;42.048;24.638;2023-05-08T02:20:38;97726.09;;;11.30;100.00
10464;BME280;5279;42.048;24.638;2023-05-08T02:23:06;97733.03;;;11.31;100.00
10464;BME280;5279;42.048;24.638;2023-05-08T02:25:34;97731.16;;;11.14;100.00
10464;BME280;5279;42.048;24.638;2023-05-08T02:28:02;97726.66;;;11.24;100.00
10464;BME280;5279;42.048;24.638;2023-05-08T02:30:33;97740.03;;;11.32;100.00
10464;BME280;5279;42.048;24.638;2023-05-08T02:33:02;97711.31;;;11.27;100.00
10464;BME280;5279;42.048;24.638;2023-05-08T02:35:37;97722.09;;;11.43;100.00
10464;BME280;5279;42.048;24.638;2023-05-08T02:38:07;97721.56;;;11.40;100.00
10464;BME280;5279;42.048;24.638;2023-05-08T02:40:40;97726.06;;;11.39;100.00
10464;BME280;5279;42.048;24.638;2023-05-08T02:43:10;97731.97;;;11.24;100.00
10464;BME280;5279;42.048;24.638;2023-05-08T02:45:42;97718.09;;;11.03;100.00
10464;BME280;5279;42.048;24.638;2023-05-08T02:48:17;97722.81;;;11.09;100.00
10464;BME280;5279;42.048;24.638;2023-05-08T02:50:52;97719.31;;;11.08;100.00
10464;BME280;5279;42.048;24.638;2023-05-08T02:53:29;97723.88;;;11.16;100.00
10464;BME280;5279;42.048;24.638;2023-05-08T02:56:04;97730.59;;;11.20;100.00
10464;BME280;5279;42.048;24.638;2023-05-08T02:58:39;97720.84;;;11.11;100.00
10464;BME280;5279;42.048;24.638;2023-05-08T03:01:15;97722.63;;;11.20;100.00
10464;BME280;5279;42.048;24.638;2023-05-08T03:03:53;97732.53;;;11.27;100.00
10464;BME280;5279;42.048;24.638;2023-05-08T03:06:32;97733.63;;;11.25;100.00
10464;BME280;5279;42.048;24.638;2023-05-08T03:09:02;97728.63;;;11.22;100.00
10464;BME280;5279;42.048;24.638;2023-05-08T03:11:37;97735.88;;;11.20;100.00
10464;BME280;5279;42.048;24.638;2023-05-08T03:14:10;97746.78;;;11.17;100.00
10464;BME280;5279;42.048;24.638;2023-05-08T03:16:40;97745.38;;;11.22;100.00
10464;BME280;5279;42.048;24.638;2023-05-08T03:19:14;97745.25;;;11.24;100.00
10464;BME280;5279;42.048;24.638;2023-05-08T03:21:47;97741.09;;;11.12;100.00
10464;BME280;5279;42.048;24.638;2023-05-08T03:24:18;97750.19;;;11.00;100.00
10464;BME280;5279;42.048;24.638;2023-05-08T03:26:47;97745.75;;;11.00;100.00
10464;BME280;5279;42.048;24.638;2023-05-08T03:29:15;97748.81;;;10.86;100.00
10464;BME280;5279;42.048;24.638;2023-05-08T03:31:46;97749.56;;;10.78;100.00
10464;BME280;5279;42.048;24.638;2023-05-08T03:34:14;97748.81;;;10.86;100.00
10464;BME280;5279;42.048;24.638;2023-05-08T03:36:45;97753.28;;;10.85;100.00
10464;BME280;5279;42.048;24.638;2023-05-08T03:39:13;97760.94;;;10.88;100.00
10464;BME280;5279;42.048;24.638;2023-05-08T03:41:42;97752.47;;;10.85;100.00
10464;BME280;5279;42.048;24.638;2023-05-08T03:44:11;97765.56;;;10.96;100.00
10464;BME280;5279;42.048;24.638;2023-05-08T03:46:41;97765.56;;;10.96;100.00
10464;BME280;5279;42.048;24.638;2023-05-08T03:49:11;97756.66;;;10.87;100.00
10464;BME280;5279;42.048;24.638;2023-05-08T03:51:41;97761.88;;;11.07;100.00
10464;BME280;5279;42.048;24.638;2023-05-08T03:54:11;97785.59;;;11.18;100.00
10464;BME280;5279;42.048;24.638;2023-05-08T03:56:39;97774.13;;;11.27;100.00
10464;BME280;5279;42.048;24.638;2023-05-08T03:59:14;97761.53;;;11.29;100.00
10464;BME280;5279;42.048;24.638;2023-05-08T04:01:48;97779.63;;;11.43;100.00
10464;BME280;5279;42.048;24.638;2023-05-08T04:04:24;97767.84;;;11.55;100.00
10464;BME280;5279;42.048;24.638;2023-05-08T04:06:59;97779.56;;;11.72;100.00
10464;BME280;5279;42.048;24.638;2023-05-08T04:09:36;97792.78;;;11.81;100.00
10464;BME280;5279;42.048;24.638;2023-05-08T04:12:10;97777.22;;;11.86;100.00
10464;BME280;5279;42.048;24.638;2023-05-08T04:14:42;97781.22;;;12.00;100.00
10464;BME280;5279;42.048;24.638;2023-05-08T04:17:14;97782.38;;;12.15;100.00
10464;BME280;5279;42.048;24.638;2023-05-08T04:19:46;97781.13;;;12.37;100.00
10464;BME280;5279;42.048;24.638;2023-05-08T04:22:19;97782.63;;;12.57;100.00
10464;BME280;5279;42.048;24.638;2023-05-08T04:24:50;97787.47;;;12.79;100.00
10464;BME280;5279;42.048;24.638;2023-05-08T04:27:19;97772.03;;;12.83;100.00
10464;BME280;5279;42.048;24.638;2023-05-08T04:29:48;97775.00;;;12.97;100.00
10464;BME280;5279;42.048;24.638;2023-05-08T04:32:16;97768.75;;;12.89;100.00
10464;BME280;5279;42.048;24.638;2023-05-08T04:34:43;97754.63;;;12.88;100.00
10464;BME280;5279;42.048;24.638;2023-05-08T04:37:23;97771.41;;;13.06;100.00
10464;BME280;5279;42.048;24.638;2023-05-08T04:39:53;97761.56;;;13.25;100.00
10464;BME280;5279;42.048;24.638;2023-05-08T04:42:21;97770.00;;;13.46;100.00
10464;BME280;5279;42.048;24.638;2023-05-08T04:44:49;97764.72;;;13.62;100.00
10464;BME280;5279;42.048;24.638;2023-05-08T04:47:16;97776.50;;;13.85;100.00
10464;BME280;5279;42.048;24.638;2023-05-08T04:49:44;97776.41;;;14.11;100.00
10464;BME280;5279;42.048;24.638;2023-05-08T04:52:12;97781.47;;;14.30;100.00
10464;BME280;5279;42.048;24.638;2023-05-08T04:54:39;97777.31;;;14.28;100.00
10464;BME280;5279;42.048;24.638;2023-05-08T04:57:11;97763.19;;;14.43;100.00
10464;BME280;5279;42.048;24.638;2023-05-08T04:59:38;97763.03;;;14.61;100.00
10464;BME280;5279;42.048;24.638;2023-05-08T05:02:06;97754.22;;;14.60;100.00
10464;BME280;5279;42.048;24.638;2023-05-08T05:04:34;97763.19;;;14.84;100.00
10464;BME280;5279;42.048;24.638;2023-05-08T05:07:01;97769.41;;;14.92;100.00
10464;BME280;5279;42.048;24.638;2023-05-08T05:09:29;97756.69;;;15.18;100.00
10464;BME280;5279;42.048;24.638;2023-05-08T05:12:22;97763.66;;;15.44;100.00
10464;BME280;5279;42.048;24.638;2023-05-08T05:14:50;97778.97;;;15.58;96.64
10464;BME280;5279;42.048;24.638;2023-05-08T05:17:18;97756.38;;;15.76;92.59
10464;BME280;5279;42.048;24.638;2023-05-08T05:19:45;97762.13;;;15.96;86.24
10464;BME280;5279;42.048;24.638;2023-05-08T05:22:14;97765.47;;;15.98;87.88
10464;BME280;5279;42.048;24.638;2023-05-08T05:24:41;97753.16;;;15.81;92.54
10464;BME280;5279;42.048;24.638;2023-05-08T05:27:09;97762.16;;;15.88;92.35
10464;BME280;5279;42.048;24.638;2023-05-08T05:29:42;97754.09;;;16.04;89.25
10464;BME280;5279;42.048;24.638;2023-05-08T05:32:09;97743.41;;;16.04;88.55
10464;BME280;5279;42.048;24.638;2023-05-08T05:34:37;97754.09;;;16.27;89.37
10464;BME280;5279;42.048;24.638;2023-05-08T05:37:04;97745.44;;;16.48;88.65
10464;BME280;5279;42.048;24.638;2023-05-08T05:39:31;97744.34;;;16.65;86.78
10464;BME280;5279;42.048;24.638;2023-05-08T05:41:58;97742.59;;;16.72;81.77
10464;BME280;5279;42.048;24.638;2023-05-08T05:44:31;97737.72;;;16.98;82.80
10464;BME280;5279;42.048;24.638;2023-05-08T05:47:00;97733.69;;;17.02;81.53
10464;BME280;5279;42.048;24.638;2023-05-08T05:49:29;97737.75;;;17.27;78.84
10464;BME280;5279;42.048;24.638;2023-05-08T05:51:56;97744.78;;;17.28;77.84
10464;BME280;5279;42.048;24.638;2023-05-08T05:54:23;97744.41;;;17.31;79.13
10464;BME280;5279;42.048;24.638;2023-05-08T05:56:50;97737.75;;;17.42;78.12
10464;BME280;5279;42.048;24.638;2023-05-08T05:59:17;97740.66;;;17.70;77.17
10464;BME280;5279;42.048;24.638;2023-05-08T06:01:44;97743.34;;;17.70;76.03
10464;BME280;5279;42.048;24.638;2023-05-08T06:04:13;97742.78;;;17.89;75.13
10464;BME280;5279;42.048;24.638;2023-05-08T06:06:39;97733.69;;;18.05;73.25
10464;BME280;5279;42.048;24.638;2023-05-08T06:09:07;97737.84;;;18.07;72.50
10464;BME280;5279;42.048;24.638;2023-05-08T06:11:33;97739.66;;;18.21;71.11
10464;BME280;5279;42.048;24.638;2023-05-08T06:14:00;97734.41;;;18.13;68.37
10464;BME280;5279;42.048;24.638;2023-05-08T06:16:27;97735.72;;;18.02;70.25
10464;BME280;5279;42.048;24.638;2023-05-08T06:18:54;97738.84;;;18.21;68.93
10464;BME280;5279;42.048;24.638;2023-05-08T06:21:23;97735.44;;;18.33;68.80
10464;BME280;5279;42.048;24.638;2023-05-08T06:23:49;97736.59;;;18.24;68.45
10464;BME280;5279;42.048;24.638;2023-05-08T06:26:17;97743.63;;;18.25;64.90
10464;BME280;5279;42.048;24.638;2023-05-08T06:28:43;97743.78;;;18.38;65.55
10464;BME280;5279;42.048;24.638;2023-05-08T06:31:10;97740.63;;;18.49;65.84
10464;BME280;5279;42.048;24.638;2023-05-08T06:33:37;97742.34;;;18.42;63.48
10464;BME280;5279;42.048;24.638;2023-05-08T06:36:05;97750.88;;;18.46;65.29
10464;BME280;5279;42.048;24.638;2023-05-08T06:38:33;97735.25;;;18.49;63.69
10464;BME280;5279;42.048;24.638;2023-05-08T06:41:00;97730.41;;;18.60;62.83
10464;BME280;5279;42.048;24.638;2023-05-08T06:43:27;97733.47;;;18.78;63.27
10464;BME280;5279;42.048;24.638;2023-05-08T06:45:55;97727.56;;;18.89;62.01
10464;BME280;5279;42.048;24.638;2023-05-08T06:48:22;97723.56;;;19.06;62.33
10464;BME280;5279;42.048;24.638;2023-05-08T06:50:53;97726.34;;;19.19;60.03
10464;BME280;5279;42.048;24.638;2023-05-08T06:53:20;97722.56;;;19.07;63.21
10464;BME280;5279;42.048;24.638;2023-05-08T06:55:50;97723.47;;;19.42;60.62
10464;BME280;5279;42.048;24.638;2023-05-08T06:58:17;97722.16;;;19.66;58.82
10464;BME280;5279;42.048;24.638;2023-05-08T07:00:44;97718.47;;;19.80;57.26
10464;BME280;5279;42.048;24.638;2023-05-08T07:03:11;97716.06;;;19.85;58.03
10464;BME280;5279;42.048;24.638;2023-05-08T07:05:38;97714.78;;;19.81;59.23
10464;BME280;5279;42.048;24.638;2023-05-08T07:08:05;97713.50;;;19.77;57.17
10464;BME280;5279;42.048;24.638;2023-05-08T07:10:33;97710.53;;;19.58;56.83
10464;BME280;5279;42.048;24.638;2023-05-08T07:13:02;97722.94;;;19.59;57.19
10464;BME280;5279;42.048;24.638;2023-05-08T07:15:30;97719.78;;;19.49;59.83
10464;BME280;5279;42.048;24.638;2023-05-08T07:17:57;97721.31;;;19.37;58.79
10464;BME280;5279;42.048;24.638;2023-05-08T07:20:24;97712.34;;;19.24;57.95
10464;BME280;5279;42.048;24.638;2023-05-08T07:22:51;97710.88;;;19.42;60.06
10464;BME280;5279;42.048;24.638;2023-05-08T07:25:18;97703.91;;;19.54;59.87
10464;BME280;5279;42.048;24.638;2023-05-08T07:27:45;97712.97;;;19.88;57.94
10464;BME280;5279;42.048;24.638;2023-05-08T07:30:14;97707.88;;;20.19;55.74
10464;BME280;5279;42.048;24.638;2023-05-08T07:32:41;97705.47;;;20.37;54.79
10464;BME280;5279;42.048;24.638;2023-05-08T07:35:08;97699.31;;;20.56;55.38
10464;BME280;5279;42.048;24.638;2023-05-08T07:37:37;97694.38;;;20.73;54.14
10464;BME280;5279;42.048;24.638;2023-05-08T07:40:04;97687.31;;;20.79;52.68
10464;BME280;5279;42.048;24.638;2023-05-08T07:42:37;97684.41;;;21.00;52.17
10464;BME280;5279;42.048;24.638;2023-05-08T07:45:05;97689.19;;;21.11;53.78
10464;BME280;5279;42.048;24.638;2023-05-08T07:47:33;97688.13;;;21.25;54.03
10464;BME280;5279;42.048;24.638;2023-05-08T07:50:01;97691.00;;;21.43;51.78
10464;BME280;5279;42.048;24.638;2023-05-08T07:52:33;97683.50;;;21.58;52.54
10464;BME280;5279;42.048;24.638;2023-05-08T07:55:00;97686.19;;;21.58;51.75
10464;BME280;5279;42.048;24.638;2023-05-08T07:57:35;97688.44;;;21.74;55.36
10464;BME280;5279;42.048;24.638;2023-05-08T08:00:02;97684.56;;;22.15;51.48
10464;BME280;5279;42.048;24.638;2023-05-08T08:02:29;97682.41;;;22.30;50.83
10464;BME280;5279;42.048;24.638;2023-05-08T08:04:57;97683.38;;;22.42;50.95
10464;BME280;5279;42.048;24.638;2023-05-08T08:07:24;97677.63;;;22.63;50.43
10464;BME280;5279;42.048;24.638;2023-05-08T08:09:51;97678.69;;;22.56;47.96
10464;BME280;5279;42.048;24.638;2023-05-08T08:12:18;97679.72;;;22.61;49.13
10464;BME280;5279;42.048;24.638;2023-05-08T08:14:45;97672.59;;;22.73;47.85
10464;BME280;5279;42.048;24.638;2023-05-08T08:17:12;97677.31;;;23.03;47.36
10464;BME280;5279;42.048;24.638;2023-05-08T08:19:39;97664.41;;;23.05;48.44
10464;BME280;5279;42.048;24.638;2023-05-08T08:22:07;97667.72;;;23.31;47.16
10464;BME280;5279;42.048;24.638;2023-05-08T08:24:34;97663.16;;;23.50;48.06
10464;BME280;5279;42.048;24.638;2023-05-08T08:27:01;97656.22;;;23.36;46.64
10464;BME280;5279;42.048;24.638;2023-05-08T08:29:29;97661.34;;;23.44;45.88
10464;BME280;5279;42.048;24.638;2023-05-08T08:31:56;97663.91;;;23.57;45.05
10464;BME280;5279;42.048;24.638;2023-05-08T08:34:23;97669.75;;;23.90;45.80
10464;BME280;5279;42.048;24.638;2023-05-08T08:36:50;97663.47;;;23.78;46.53
10464;BME280;5279;42.048;24.638;2023-05-08T08:39:18;97657.44;;;24.13;47.88
10464;BME280;5279;42.048;24.638;2023-05-08T08:41:45;97657.34;;;24.19;45.18
10464;BME280;5279;42.048;24.638;2023-05-08T08:44:12;97651.47;;;24.22;44.02
10464;BME280;5279;42.048;24.638;2023-05-08T08:46:43;97646.50;;;24.19;44.26
10464;BME280;5279;42.048;24.638;2023-05-08T08:49:17;97654.94;;;24.41;43.35
10464;BME280;5279;42.048;24.638;2023-05-08T08:51:49;97650.16;;;24.55;44.15
10464;BME280;5279;42.048;24.638;2023-05-08T08:54:22;97642.00;;;24.43;47.18
10464;BME280;5279;42.048;24.638;2023-05-08T08:56:50;97639.88;;;24.45;44.84
10464;BME280;5279;42.048;24.638;2023-05-08T08:59:18;97632.03;;;24.78;43.74
10464;BME280;5279;42.048;24.638;2023-05-08T09:01:49;97634.84;;;24.72;42.99
10464;BME280;5279;42.048;24.638;2023-05-08T09:04:16;97633.03;;;24.84;42.91
10464;BME280;5279;42.048;24.638;2023-05-08T09:06:44;97636.47;;;25.02;42.96
10464;BME280;5279;42.048;24.638;2023-05-08T09:09:11;97630.22;;;25.25;41.60
10464;BME280;5279;42.048;24.638;2023-05-08T09:11:41;97628.56;;;25.13;42.37
10464;BME280;5279;42.048;24.638;2023-05-08T09:14:09;97631.28;;;25.13;41.48
10464;BME280;5279;42.048;24.638;2023-05-08T09:16:36;97632.94;;;25.14;41.74
10464;BME280;5279;42.048;24.638;2023-05-08T09:19:04;97621.00;;;25.38;42.82
10464;BME280;5279;42.048;24.638;2023-05-08T09:21:31;97612.88;;;25.15;42.29
10464;BME280;5279;42.048;24.638;2023-05-08T09:23:59;97606.28;;;25.11;41.67
10464;BME280;5279;42.048;24.638;2023-05-08T09:26:28;97611.69;;;24.99;42.08
10464;BME280;5279;42.048;24.638;2023-05-08T09:29:15;97600.03;;;25.10;42.25
10464;BME280;5279;42.048;24.638;2023-05-08T09:31:43;97594.59;;;25.22;42.36
10464;BME280;5279;42.048;24.638;2023-05-08T09:34:21;97583.38;;;25.30;40.76
10464;BME280;5279;42.048;24.638;2023-05-08T09:36:49;97589.50;;;25.37;42.74
10464;BME280;5279;42.048;24.638;2023-05-08T09:39:21;97587.03;;;25.24;42.46
10464;BME280;5279;42.048;24.638;2023-05-08T09:41:58;97580.81;;;25.12;43.03
10464;BME280;5279;42.048;24.638;2023-05-08T09:44:27;97567.84;;;25.14;41.34
10464;BME280;5279;42.048;24.638;2023-05-08T09:47:09;97584.91;;;25.37;41.82
10464;BME280;5279;42.048;24.638;2023-05-08T09:49:36;97571.88;;;25.74;41.89
10464;BME280;5279;42.048;24.638;2023-05-08T09:52:05;97571.34;;;25.49;40.80
10464;BME280;5279;42.048;24.638;2023-05-08T09:54:32;97570.13;;;25.68;42.89
10464;BME280;5279;42.048;24.638;2023-05-08T09:57:00;97561.28;;;25.61;40.62
10464;BME280;5279;42.048;24.638;2023-05-08T09:59:38;97562.66;;;25.75;41.70
10464;BME280;5279;42.048;24.638;2023-05-08T10:02:09;97553.34;;;25.71;41.16
10464;BME280;5279;42.048;24.638;2023-05-08T10:04:37;97555.06;;;26.05;43.29
10464;BME280;5279;42.048;24.638;2023-05-08T10:07:04;97549.88;;;26.16;40.44
10464;BME280;5279;42.048;24.638;2023-05-08T10:09:31;97548.56;;;26.35;42.61
10464;BME280;5279;42.048;24.638;2023-05-08T10:11:58;97549.16;;;26.08;41.13
10464;BME280;5279;42.048;24.638;2023-05-08T10:14:24;97542.72;;;25.98;42.43
10464;BME280;5279;42.048;24.638;2023-05-08T10:16:53;97540.81;;;26.27;41.23
10464;BME280;5279;42.048;24.638;2023-05-08T10:19:21;97544.88;;;26.41;41.14
10464;BME280;5279;42.048;24.638;2023-05-08T10:21:50;97545.03;;;26.84;40.24
10464;BME280;5279;42.048;24.638;2023-05-08T10:24:18;97542.69;;;27.09;39.58
10464;BME280;5279;42.048;24.638;2023-05-08T10:26:55;97541.78;;;27.21;39.99
10464;BME280;5279;42.048;24.638;2023-05-08T10:29:30;97545.25;;;27.38;39.08
10464;BME280;5279;42.048;24.638;2023-05-08T10:32:01;97530.84;;;27.59;37.57
10464;BME280;5279;42.048;24.638;2023-05-08T10:34:30;97528.88;;;27.54;37.49
10464;BME280;5279;42.048;24.638;2023-05-08T10:36:58;97530.72;;;27.49;39.11
10464;BME280;5279;42.048;24.638;2023-05-08T10:39:26;97517.88;;;27.66;39.05
10464;BME280;5279;42.048;24.638;2023-05-08T10:41:55;97518.47;;;27.73;39.34
10464;BME280;5279;42.048;24.638;2023-05-08T10:44:23;97521.19;;;27.73;38.63
10464;BME280;5279;42.048;24.638;2023-05-08T10:46:56;97522.84;;;28.01;37.75
10464;BME280;5279;42.048;24.638;2023-05-08T10:49:36;97514.50;;;28.07;38.31
10464;BME280;5279;42.048;24.638;2023-05-08T10:52:11;97521.56;;;27.82;38.06
10464;BME280;5279;42.048;24.638;2023-05-08T10:57:33;97514.50;;;28.07;37.81
10464;BME280;5279;42.048;24.638;2023-05-08T11:00:02;97502.53;;;28.40;37.08
10464;BME280;5279;42.048;24.638;2023-05-08T11:02:29;97507.09;;;28.30;37.37
10464;BME280;5279;42.048;24.638;2023-05-08T11:05:17;97506.09;;;28.46;36.63
10464;BME280;5279;42.048;24.638;2023-05-08T11:07:54;97499.09;;;28.55;36.90
10464;BME280;5279;42.048;24.638;2023-05-08T11:10:29;97508.59;;;28.47;37.46
10464;BME280;5279;42.048;24.638;2023-05-08T11:12:56;97498.22;;;28.44;37.37
10464;BME280;5279;42.048;24.638;2023-05-08T11:15:34;97498.50;;;28.48;35.98
10464;BME280;5279;42.048;24.638;2023-05-08T11:18:02;97500.75;;;28.93;36.89
10464;BME280;5279;42.048;24.638;2023-05-08T11:20:39;97501.00;;;29.43;36.54
10464;BME280;5279;42.048;24.638;2023-05-08T11:23:22;97489.31;;;29.53;33.81
10464;BME280;5279;42.048;24.638;2023-05-08T11:25:58;97493.19;;;29.72;34.94
10464;BME280;5279;42.048;24.638;2023-05-08T11:28:26;97488.88;;;29.19;34.31
10464;BME280;5279;42.048;24.638;2023-05-08T11:30:53;97485.84;;;29.10;35.17
10464;BME280;5279;42.048;24.638;2023-05-08T11:33:22;97489.88;;;28.61;35.89
10464;BME280;5279;42.048;24.638;2023-05-08T11:35:53;97479.59;;;28.73;36.24
10464;BME280;5279;42.048;24.638;2023-05-08T11:38:25;97490.59;;;28.83;35.30
10464;BME280;5279;42.048;24.638;2023-05-08T11:40:58;97479.16;;;28.86;35.51
10464;BME280;5279;42.048;24.638;2023-05-08T11:43:48;97476.75;;;28.95;35.10
10464;BME280;5279;42.048;24.638;2023-05-08T11:46:18;97471.66;;;29.18;35.42
10464;BME280;5279;42.048;24.638;2023-05-08T11:48:46;97478.16;;;29.02;34.97
10464;BME280;5279;42.048;24.638;2023-05-08T11:51:16;97472.47;;;28.67;35.44
10464;BME280;5279;42.048;24.638;2023-05-08T11:53:45;97477.78;;;28.84;34.99
10464;BME280;5279;42.048;24.638;2023-05-08T11:56:13;97460.97;;;29.02;35.17
10464;BME280;5279;42.048;24.638;2023-05-08T11:58:41;97459.59;;;29.04;34.63
10464;BME280;5279;42.048;24.638;2023-05-08T12:01:10;97451.41;;;28.99;35.36
10464;BME280;5279;42.048;24.638;2023-05-08T12:03:42;97446.56;;;29.21;33.83
10464;BME280;5279;42.048;24.638;2023-05-08T12:06:10;97451.84;;;29.33;34.72
10464;BME280;5279;42.048;24.638;2023-05-08T12:08:39;97444.25;;;29.45;34.09
10464;BME280;5279;42.048;24.638;2023-05-08T12:11:07;97451.13;;;29.63;34.62
10464;BME280;5279;42.048;24.638;2023-05-08T12:13:34;97452.25;;;29.05;34.78
10464;BME280;5279;42.048;24.638;2023-05-08T12:16:01;97449.97;;;28.82;36.33
10464;BME280;5279;42.048;24.638;2023-05-08T12:18:31;97449.44;;;28.48;36.26
10464;BME280;5279;42.048;24.638;2023-05-08T12:20:59;97450.94;;;28.29;35.85
10464;BME280;5279;42.048;24.638;2023-05-08T12:23:27;97450.34;;;27.95;37.31
10464;BME280;5279;42.048;24.638;2023-05-08T12:26:00;97448.91;;;27.60;35.32
10464;BME280;5279;42.048;24.638;2023-05-08T12:28:27;97431.78;;;27.17;37.71
10464;BME280;5279;42.048;24.638;2023-05-08T12:30:56;97448.50;;;26.65;38.48
10464;BME280;5279;42.048;24.638;2023-05-08T12:33:24;97437.66;;;26.15;39.73
10464;BME280;5279;42.048;24.638;2023-05-08T12:35:50;97431.88;;;26.12;39.38
10464;BME280;5279;42.048;24.638;2023-05-08T12:38:17;97431.47;;;25.86;40.47
10464;BME280;5279;42.048;24.638;2023-05-08T12:40:46;97423.06;;;25.71;40.42
10464;BME280;5279;42.048;24.638;2023-05-08T12:43:18;97434.06;;;25.81;39.87
10464;BME280;5279;42.048;24.638;2023-05-08T12:45:45;97425.44;;;25.84;40.88
10464;BME280;5279;42.048;24.638;2023-05-08T12:48:13;97423.22;;;25.81;41.39
10464;BME280;5279;42.048;24.638;2023-05-08T12:50:43;97427.66;;;25.87;39.53
10464;BME280;5279;42.048;24.638;2023-05-08T12:53:12;97428.41;;;25.83;40.94
10464;BME280;5279;42.048;24.638;2023-05-08T12:55:49;97419.94;;;25.79;40.12
10464;BME280;5279;42.048;24.638;2023-05-08T12:58:19;97427.66;;;25.87;39.30
10464;BME280;5279;42.048;24.638;2023-05-08T13:00:48;97425.97;;;25.98;39.35
10464;BME280;5279;42.048;24.638;2023-05-08T13:03:21;97428.47;;;26.54;41.59
10464;BME280;5279;42.048;24.638;2023-05-08T13:05:52;97422.31;;;26.97;39.69
10464;BME280;5279;42.048;24.638;2023-05-08T13:08:28;97434.88;;;27.25;38.13
10464;BME280;5279;42.048;24.638;2023-05-08T13:10:55;97429.94;;;27.22;38.12
10464;BME280;5279;42.048;24.638;2023-05-08T13:13:25;97426.16;;;27.23;37.08